Time;durP1;ratioP1;P1;durP2;ratioP2;P2;SDS_P1;SDS_P2;PMS_P1;PMS_P2;Temp;Humidity;BMP_temperature;BMP_pressure;BME280_temperature;BME280_humidity;BME280_pressure;Samples;Min_cycle;Max_cycle;Signal;HPM_P1;HPM_P2
2021/12/06 17:16:59;;;;;;;9.20;6.00;;;;;;;-3.22;100.00;99987.19;10567777;27;20354;-82
2021/12/06 17:22:07;;;;;;;6.20;4.63;;;;;;;-2.62;100.00;99978.56;10522146;28;20603;-84
2021/12/06 17:27:10;;;;;;;5.30;4.80;;;;;;;-2.50;100.00;99976.63;10500460;28;20472;-84
2021/12/06 17:32:12;;;;;;;4.80;3.87;;;;;;;-2.39;100.00;99959.25;10519769;28;20199;-83
2021/12/06 17:37:15;;;;;;;4.40;4.00;;;;;;;-2.37;100.00;99948.84;10532073;28;20256;-84
2021/12/06 17:42:22;;;;;;;4.90;4.23;;;;;;;-2.32;100.00;99934.31;10516003;28;20247;-80
2021/12/06 17:47:26;;;;;;;9.77;5.27;;;;;;;-2.38;100.00;99924.31;10497240;28;20218;-80
2021/12/06 17:52:29;;;;;;;8.17;4.67;;;;;;;-2.32;100.00;99934.31;10533941;28;20238;-84
2021/12/06 17:57:41;;;;;;;5.77;4.27;;;;;;;-2.39;100.00;99925.41;10534024;28;20263;-83
2021/12/06 18:02:44;;;;;;;5.23;3.93;;;;;;;-2.30;100.00;99923.91;10534758;28;20284;-81
2021/12/06 18:07:46;;;;;;;5.87;4.50;;;;;;;-2.37;100.00;99924.09;10533401;28;20202;-81
2021/12/06 18:12:49;;;;;;;5.53;4.50;;;;;;;-2.46;100.00;99925.53;10540415;28;20229;-80
2021/12/06 18:17:51;;;;;;;6.03;4.13;;;;;;;-2.46;99.77;99934.63;10558697;28;20199;-83
2021/12/06 18:22:54;;;;;;;4.73;3.93;;;;;;;-2.45;100.00;99944.56;10534247;28;20199;-82
2021/12/06 18:27:59;;;;;;;4.13;3.73;;;;;;;-2.40;99.18;99941.06;10468934;28;20211;-80
2021/12/06 18:33:03;;;;;;;4.73;4.33;;;;;;;-2.47;99.67;99946.72;10483939;28;20250;-84
2021/12/06 18:38:13;;;;;;;8.37;4.07;;;;;;;-2.46;98.85;99940.13;10485043;28;20208;-82
2021/12/06 18:43:32;;;;;;;6.73;4.77;;;;;;;-2.44;99.47;99929.72;10481336;28;20226;-81
2021/12/06 18:48:39;;;;;;;7.37;4.40;;;;;;;-2.42;99.62;99912.97;10475355;28;20207;-81
2021/12/06 18:53:43;;;;;;;6.20;4.70;;;;;;;-2.52;99.75;99902.63;10493871;28;20219;-83
2021/12/06 18:58:45;;;;;;;5.73;4.70;;;;;;;-2.50;99.43;99886.72;10484497;28;20223;-81
2021/12/06 19:03:50;;;;;;;5.37;4.10;;;;;;;-2.50;99.08;99875.72;10489036;28;20519;-81
2021/12/06 19:08:52;;;;;;;5.17;4.27;;;;;;;-2.56;99.31;99862.94;10489089;28;20207;-80
2021/12/06 19:13:55;;;;;;;4.60;4.13;;;;;;;-2.47;98.86;99828.44;10497672;28;20719;-81
2021/12/06 19:18:57;;;;;;;4.47;3.80;;;;;;;-2.48;98.03;99815.78;10514333;28;20271;-82
2021/12/06 19:23:59;;;;;;;7.37;4.47;;;;;;;-2.41;97.65;99804.63;10523898;28;20271;-82
2021/12/06 19:29:04;;;;;;;4.70;3.73;;;;;;;-2.48;98.14;99793.78;10508700;28;20244;-81
2021/12/06 19:34:06;;;;;;;5.17;3.47;;;;;;;-2.43;97.67;99780.13;10510257;28;20222;-82
2021/12/06 19:39:08;;;;;;;4.13;3.60;;;;;;;-2.38;97.58;99781.28;10524446;28;20599;-82
2021/12/06 19:44:11;;;;;;;3.80;3.33;;;;;;;-2.31;97.37;99771.78;10532887;28;20195;-82
2021/12/06 19:49:13;;;;;;;5.00;3.50;;;;;;;-2.34;97.05;99760.44;10508366;28;20251;-80
2021/12/06 19:54:16;;;;;;;4.57;3.63;;;;;;;-2.34;96.68;99743.91;10518082;28;20273;-85
2021/12/06 19:59:18;;;;;;;4.70;3.63;;;;;;;-2.31;96.01;99721.41;10501911;28;20718;-84
2021/12/06 20:04:21;;;;;;;4.20;3.50;;;;;;;-2.34;95.83;99709.00;10536179;28;20214;-84
2021/12/06 20:09:23;;;;;;;4.63;3.50;;;;;;;-2.31;95.66;99713.16;10513538;28;20248;-84
2021/12/06 20:14:26;;;;;;;4.73;3.37;;;;;;;-2.33;96.01;99701.56;10537952;28;20699;-84
2021/12/06 20:19:28;;;;;;;4.60;2.90;;;;;;;-2.24;95.40;99689.06;10512215;28;20679;-82
2021/12/06 20:24:30;;;;;;;4.50;3.33;;;;;;;-2.32;95.09;99678.50;10525139;28;20191;-83
2021/12/06 20:29:33;;;;;;;3.17;2.60;;;;;;;-2.25;95.02;99654.41;10510926;28;20255;-80
2021/12/06 20:34:36;;;;;;;4.40;3.27;;;;;;;-2.20;95.11;99654.44;10507197;28;20698;-81
2021/12/06 20:39:38;;;;;;;4.60;2.70;;;;;;;-2.11;94.16;99650.19;10506032;28;20256;-82
2021/12/06 20:44:41;;;;;;;4.37;3.30;;;;;;;-2.11;94.41;99645.50;10514458;28;20202;-83
2021/12/06 20:49:44;;;;;;;5.97;3.63;;;;;;;-2.11;94.67;99620.75;10497759;28;20240;-82
2021/12/06 20:54:47;;;;;;;4.13;3.00;;;;;;;-2.17;95.30;99609.91;10496329;28;20218;-84
2021/12/06 20:59:49;;;;;;;5.87;3.90;;;;;;;-2.08;95.03;99611.13;10520431;28;20588;-84
2021/12/06 21:04:51;;;;;;;4.50;3.40;;;;;;;-2.11;94.80;99592.41;10489246;28;20214;-84
2021/12/06 21:09:57;;;;;;;4.10;3.37;;;;;;;-2.00;94.69;99591.44;10525327;28;20653;-83
2021/12/06 21:15:17;;;;;;;4.90;3.67;;;;;;;-2.02;94.63;99588.09;10514576;28;20253;-81
2021/12/06 21:20:19;;;;;;;7.57;4.50;;;;;;;-2.01;94.44;99562.25;10517265;28;20295;-83
2021/12/06 21:25:22;;;;;;;4.10;3.63;;;;;;;-1.99;94.29;99549.06;10539484;28;20199;-83
2021/12/06 21:30:24;;;;;;;4.57;3.60;;;;;;;-1.94;94.49;99545.50;10505355;28;20200;-82
2021/12/06 21:35:26;;;;;;;6.83;4.20;;;;;;;-1.92;94.65;99533.16;10519007;28;20630;-82
2021/12/06 21:40:29;;;;;;;4.57;3.17;;;;;;;-1.96;93.90;99522.91;10503222;28;20232;-82
2021/12/06 21:45:32;;;;;;;4.93;3.40;;;;;;;-1.92;94.42;99510.28;10507197;28;20602;-82
2021/12/06 21:50:35;;;;;;;4.80;3.80;;;;;;;-1.84;93.89;99496.06;10511222;28;20195;-84
2021/12/06 21:55:38;;;;;;;5.13;4.00;;;;;;;-1.83;94.63;99482.03;10515637;28;20638;-84
2021/12/06 22:00:49;;;;;;;7.27;4.10;;;;;;;-1.86;94.01;99465.22;10533452;28;20232;-82
2021/12/06 22:06:00;;;;;;;6.53;3.80;;;;;;;-1.85;94.47;99462.22;10527139;28;20694;-84
2021/12/06 22:11:02;;;;;;;5.13;3.40;;;;;;;-1.99;94.65;99446.38;10532897;28;20587;-83
2021/12/06 22:16:05;;;;;;;4.73;3.40;;;;;;;-1.97;95.72;99447.75;10546340;28;20564;-83
2021/12/06 22:21:09;;;;;;;4.40;3.47;;;;;;;-1.84;95.67;99441.81;10536237;28;20202;-84
2021/12/06 22:26:11;;;;;;;6.07;3.70;;;;;;;-1.93;96.35;99426.88;10530273;28;20323;-81
2021/12/06 22:31:13;;;;;;;5.50;3.50;;;;;;;-1.91;97.55;99421.97;10528907;28;20210;-83
2021/12/06 22:36:16;;;;;;;5.53;4.03;;;;;;;-2.06;99.96;99402.56;10524711;28;20215;-84
2021/12/06 22:41:20;;;;;;;6.37;3.57;;;;;;;-2.14;100.00;99397.53;10519296;28;20206;-81
2021/12/06 22:46:22;;;;;;;4.40;3.83;;;;;;;-2.17;100.00;99387.03;10516064;28;20257;-83
2021/12/06 22:51:24;;;;;;;4.33;3.53;;;;;;;-2.26;100.00;99380.38;10535748;28;20203;-82
2021/12/06 22:56:27;;;;;;;6.43;4.30;;;;;;;-2.27;100.00;99373.22;10513262;28;20703;-81
2021/12/06 23:01:31;;;;;;;4.73;3.77;;;;;;;-2.46;100.00;99367.25;10524408;28;20347;-83
2021/12/06 23:06:37;;;;;;;4.00;3.33;;;;;;;-2.48;100.00;99359.25;10513190;28;20210;-80
2021/12/06 23:11:40;;;;;;;4.27;3.43;;;;;;;-2.51;100.00;99345.22;10521748;28;20206;-82
2021/12/06 23:16:43;;;;;;;4.13;3.40;;;;;;;-2.63;100.00;99341.78;10520502;28;20222;-80
2021/12/06 23:21:46;;;;;;;5.53;3.37;;;;;;;-2.62;100.00;99341.50;10540250;28;20228;-82
2021/12/06 23:26:54;;;;;;;2.87;2.57;;;;;;;-2.58;100.00;99328.91;10522819;28;20507;-84
2021/12/06 23:31:57;;;;;;;3.83;3.23;;;;;;;-2.58;100.00;99323.41;10519219;28;20199;-83
2021/12/06 23:37:01;;;;;;;3.20;2.83;;;;;;;-2.64;100.00;99326.38;10516626;28;20276;-82
2021/12/06 23:47:07;;;;;;;2.73;2.40;;;;;;;-2.55;100.00;99313.81;10520917;28;20194;-83
2021/12/06 23:52:10;;;;;;;3.43;2.60;;;;;;;-2.48;100.00;99331.75;10505906;28;20199;-81
2021/12/06 23:57:13;;;;;;;3.03;2.47;;;;;;;-2.33;100.00;99332.97;10520559;28;20218;-80
